createdAt,value
2023-03-06T00:54:55.252Z,25.00
2023-03-06T06:07:52.395Z,30.05
2023-03-06T06:47:22.237Z,54.90
2023-03-06T06:53:52.970Z,74.92
2023-03-06T06:56:53.956Z,89.80
2023-03-06T07:00:52.931Z,111.91
2023-03-06T07:07:52.855Z,116.44
2023-03-06T07:24:52.765Z,110.50
2023-03-06T07:28:53.098Z,108.37
2023-03-06T07:29:52.639Z,109.52
2023-03-06T07:31:52.653Z,109.24
2023-03-06T07:32:52.611Z,111.09
2023-03-06T07:33:52.618Z,108.69
2023-03-06T07:34:52.620Z,109.52
2023-03-06T07:35:52.614Z,108.91
2023-03-06T07:36:52.642Z,108.63
2023-03-06T07:38:52.561Z,108.66
2023-03-06T07:40:52.555Z,108.15
2023-03-06T07:41:52.533Z,108.10
2023-03-06T07:42:52.529Z,105.30
2023-03-06T07:43:52.510Z,106.33
2023-03-06T07:44:52.998Z,103.36
2023-03-06T07:45:52.502Z,105.28
2023-03-06T07:46:52.560Z,104.79
2023-03-06T07:48:52.587Z,109.61
2023-03-06T07:49:52.470Z,103.28
2023-03-06T07:50:52.474Z,104.04
2023-03-06T07:51:52.447Z,103.95
2023-03-06T07:52:52.437Z,106.68
2023-03-06T07:53:52.434Z,106.50
2023-03-06T07:54:52.469Z,106.10
2023-03-06T07:55:52.425Z,101.32
2023-03-06T07:56:52.407Z,103.74
2023-03-06T07:57:52.474Z,101.33
2023-03-06T07:58:52.387Z,103.25
2023-03-06T07:59:52.381Z,100.39
2023-03-06T08:00:52.486Z,104.47
2023-03-06T08:01:52.358Z,98.71
2023-03-06T08:03:52.413Z,98.52
2023-03-06T08:04:52.326Z,99.37
2023-03-06T08:05:52.969Z,103.77
2023-03-06T08:06:52.333Z,102.49
2023-03-06T08:08:52.293Z,99.73
2023-03-06T08:09:52.321Z,104.36
2023-03-06T08:10:52.305Z,100.25
2023-03-06T08:11:52.276Z,102.54
2023-03-06T08:13:52.258Z,100.37
2023-03-06T08:14:52.246Z,100.20
2023-03-06T08:15:52.406Z,101.11
2023-03-06T08:18:52.224Z,102.01
2023-03-06T08:19:52.215Z,98.33
2023-03-06T08:20:52.201Z,97.38
2023-03-06T08:21:52.355Z,98.29
2023-03-06T08:23:52.183Z,98.20
2023-03-06T08:24:52.176Z,97.89
2023-03-06T08:25:52.174Z,96.18
2023-03-06T08:50:51.898Z,154.31
2023-03-06T08:52:51.887Z,162.87
2023-03-06T09:04:51.769Z,205.93
2023-03-06T09:18:52.500Z,250.00
2023-03-06T09:41:51.541Z,248.95
2023-03-06T11:12:50.615Z,234.87
2023-03-06T12:00:50.160Z,206.01
2023-03-06T20:51:45.316Z,110.52
2023-03-06T20:52:45.310Z,109.75
2023-03-06T20:53:45.325Z,113.18
2023-03-06T20:54:45.294Z,112.36
2023-03-06T20:55:45.284Z,110.21
2023-03-06T20:56:45.274Z,109.42
2023-03-06T20:57:45.272Z,108.84
2023-03-06T20:58:45.256Z,110.17
2023-03-06T20:59:45.248Z,110.20
2023-03-06T21:00:45.262Z,111.43
2023-03-06T21:01:45.318Z,112.17
2023-03-06T21:02:45.239Z,113.59
2023-03-06T21:03:45.220Z,110.60
2023-03-06T21:04:45.282Z,112.05
2023-03-06T21:05:45.297Z,110.35
2023-03-06T21:06:45.214Z,110.34
2023-03-06T21:07:45.174Z,109.62
2023-03-06T21:08:45.168Z,110.33
2023-03-06T21:09:45.178Z,110.56
2023-03-06T21:10:45.145Z,110.47
2023-03-06T21:11:45.143Z,109.04
2023-03-06T21:12:45.135Z,110.15
2023-03-06T21:13:45.122Z,108.13
2023-03-06T21:14:45.111Z,110.60
2023-03-06T21:15:45.145Z,109.87
2023-03-06T21:16:45.100Z,109.69
2023-03-06T21:17:45.081Z,107.14
2023-03-06T21:18:45.083Z,108.30
2023-03-06T21:19:45.069Z,107.61
2023-03-06T21:20:45.056Z,108.15
2023-03-06T21:21:45.049Z,110.54
2023-03-06T21:22:45.043Z,108.28
2023-03-06T21:23:45.025Z,108.39
2023-03-06T21:24:45.043Z,109.05
2023-03-06T21:25:45.046Z,109.53
2023-03-06T21:26:45.002Z,106.88
2023-03-06T21:27:44.996Z,109.66
2023-03-06T21:28:44.992Z,106.98
2023-03-06T21:29:44.982Z,108.26
2023-03-06T21:30:44.979Z,106.98
2023-03-06T21:31:45.006Z,106.94
2023-03-06T21:32:44.952Z,107.49
2023-03-06T21:33:44.953Z,107.71
2023-03-06T21:34:44.929Z,107.04
2023-03-06T21:35:44.990Z,107.74
2023-03-06T21:36:44.911Z,107.46
2023-03-06T21:37:44.905Z,106.92
2023-03-06T21:38:44.893Z,109.25
2023-03-06T21:39:44.891Z,107.06
2023-03-06T21:40:44.875Z,106.60
2023-03-06T21:41:44.897Z,107.26
2023-03-06T21:42:44.856Z,108.93
2023-03-06T21:43:44.848Z,107.30
2023-03-06T21:44:44.841Z,106.08
2023-03-06T21:45:44.907Z,105.20
2023-03-06T21:46:44.835Z,107.40
2023-03-06T21:47:44.813Z,106.31
2023-03-06T21:48:44.807Z,105.45
2023-03-06T21:49:44.787Z,107.20
2023-03-06T21:50:44.785Z,105.87
2023-03-06T21:51:44.778Z,104.82
2023-03-06T21:52:44.768Z,104.66
2023-03-06T21:53:44.768Z,106.18
2023-03-06T21:54:44.748Z,106.45
2023-03-06T21:55:44.741Z,105.02
2023-03-06T21:56:44.729Z,106.31
2023-03-06T21:57:44.744Z,106.10
2023-03-06T21:58:44.715Z,105.49
2023-03-06T21:59:44.703Z,104.26
2023-03-06T22:00:44.791Z,105.89
2023-03-06T22:01:44.686Z,106.62
2023-03-06T22:02:44.684Z,106.68
2023-03-06T22:03:44.665Z,106.49
2023-03-06T22:04:44.661Z,105.23
2023-03-06T22:05:44.643Z,106.96
2023-03-06T22:06:44.634Z,103.71
2023-03-06T22:07:44.627Z,105.18
2023-03-06T22:08:44.631Z,103.12
2023-03-06T22:09:44.610Z,106.07
2023-03-06T22:10:45.378Z,104.55
2023-03-06T22:11:44.591Z,105.93
2023-03-06T22:12:44.581Z,109.02
2023-03-06T22:13:44.613Z,107.76
2023-03-06T22:14:44.574Z,105.50
2023-03-06T22:15:44.585Z,106.63
2023-03-06T22:16:44.673Z,105.35
2023-03-06T22:17:44.537Z,104.89
2023-03-06T22:18:44.562Z,105.27
2023-03-06T22:19:44.555Z,105.23
2023-03-06T22:20:44.508Z,105.35
2023-03-06T22:21:44.542Z,104.99
2023-03-06T22:23:44.486Z,105.00
2023-03-06T22:24:44.490Z,103.69
2023-03-06T22:25:44.464Z,104.04
2023-03-06T22:26:44.452Z,103.86
2023-03-06T22:27:44.451Z,103.77
2023-03-06T22:28:44.435Z,104.46
2023-03-06T22:29:44.445Z,105.44
2023-03-06T22:30:44.414Z,103.60
2023-03-06T22:31:44.466Z,104.17
2023-03-06T22:32:44.537Z,104.38
2023-03-06T22:33:44.383Z,102.42
2023-03-06T22:34:44.374Z,105.27
2023-03-06T22:35:44.396Z,103.52
2023-03-06T22:36:44.445Z,104.79
2023-03-06T22:37:44.349Z,104.81
2023-03-06T22:38:44.335Z,104.16
2023-03-06T22:39:44.327Z,104.90
2023-03-06T22:40:44.316Z,102.68
2023-03-06T22:41:44.318Z,102.42
2023-03-06T22:42:44.302Z,103.43
2023-03-06T22:43:44.303Z,102.58
2023-03-06T22:44:44.276Z,103.25
2023-03-06T22:45:44.324Z,104.60
2023-03-06T22:46:44.273Z,104.94
2023-03-06T22:47:44.268Z,101.98
2023-03-06T22:48:44.250Z,103.21
2023-03-06T22:49:44.237Z,105.18
2023-03-06T22:50:44.227Z,104.71
2023-03-06T22:51:44.219Z,103.23
2023-03-06T22:52:44.203Z,104.53
2023-03-06T22:53:44.195Z,103.97
2023-03-06T22:54:44.190Z,103.73
2023-03-06T22:55:44.184Z,103.38
2023-03-06T22:56:44.170Z,102.37
2023-03-06T22:57:44.169Z,103.25
2023-03-06T22:58:44.155Z,103.52
2023-03-06T22:59:44.140Z,104.57
2023-03-06T23:00:44.132Z,104.09
2023-03-06T23:01:44.198Z,102.73
2023-03-06T23:02:44.120Z,103.27
2023-03-06T23:03:44.109Z,104.12
2023-03-06T23:04:44.179Z,105.29
2023-03-06T23:05:44.110Z,101.47
2023-03-06T23:06:44.079Z,102.84
2023-03-06T23:07:44.081Z,103.97
2023-03-06T23:08:44.068Z,102.25
2023-03-06T23:59:44.367Z,98.80
